sensor_id;sensor_type;location;lat;lon;timestamp;P1;durP1;ratioP1;P2;durP2;ratioP2
39218;SDS011;24934;52.752;6.964;2023-08-30T00:00:49;22.40;;;20.25;;
39218;SDS011;24934;52.752;6.964;2023-08-30T00:03:14;25.25;;;22.02;;
39218;SDS011;24934;52.752;6.964;2023-08-30T00:05:40;25.52;;;22.63;;
39218;SDS011;24934;52.752;6.964;2023-08-30T00:08:09;25.13;;;22.50;;
39218;SDS011;24934;52.752;6.964;2023-08-30T00:10:35;23.70;;;21.40;;
39218;SDS011;24934;52.752;6.964;2023-08-30T00:13:03;24.58;;;22.08;;
39218;SDS011;24934;52.752;6.964;2023-08-30T00:15:28;25.80;;;23.10;;
39218;SDS011;24934;52.752;6.964;2023-08-30T00:17:54;25.83;;;23.23;;
39218;SDS011;24934;52.752;6.964;2023-08-30T00:20:20;25.50;;;22.98;;
39218;SDS011;24934;52.752;6.964;2023-08-30T00:22:46;25.55;;;22.77;;
39218;SDS011;24934;52.752;6.964;2023-08-30T00:25:16;27.40;;;24.13;;
39218;SDS011;24934;52.752;6.964;2023-08-30T00:27:42;28.00;;;25.15;;
39218;SDS011;24934;52.752;6.964;2023-08-30T00:30:08;28.23;;;24.88;;
39218;SDS011;24934;52.752;6.964;2023-08-30T00:32:36;26.23;;;23.65;;
39218;SDS011;24934;52.752;6.964;2023-08-30T00:35:02;26.88;;;23.80;;
39218;SDS011;24934;52.752;6.964;2023-08-30T00:37:28;26.50;;;23.73;;
39218;SDS011;24934;52.752;6.964;2023-08-30T00:39:53;29.35;;;23.35;;
39218;SDS011;24934;52.752;6.964;2023-08-30T00:42:19;30.33;;;24.77;;
39218;SDS011;24934;52.752;6.964;2023-08-30T00:44:45;27.92;;;25.13;;
39218;SDS011;24934;52.752;6.964;2023-08-30T00:47:11;27.15;;;24.30;;
39218;SDS011;24934;52.752;6.964;2023-08-30T00:49:41;27.20;;;23.60;;
39218;SDS011;24934;52.752;6.964;2023-08-30T00:52:08;27.65;;;24.73;;
39218;SDS011;24934;52.752;6.964;2023-08-30T00:54:35;28.35;;;24.42;;
39218;SDS011;24934;52.752;6.964;2023-08-30T00:57:01;29.48;;;24.52;;
39218;SDS011;24934;52.752;6.964;2023-08-30T00:59:29;27.25;;;24.33;;
39218;SDS011;24934;52.752;6.964;2023-08-30T01:01:57;27.17;;;24.27;;
39218;SDS011;24934;52.752;6.964;2023-08-30T01:04:24;27.20;;;24.15;;
39218;SDS011;24934;52.752;6.964;2023-08-30T01:06:50;31.80;;;23.90;;
39218;SDS011;24934;52.752;6.964;2023-08-30T01:09:16;27.25;;;24.35;;
39218;SDS011;24934;52.752;6.964;2023-08-30T01:12:04;29.77;;;24.35;;
39218;SDS011;24934;52.752;6.964;2023-08-30T01:15:35;28.02;;;25.02;;
39218;SDS011;24934;52.752;6.964;2023-08-30T01:17:49;27.70;;;24.48;;
39218;SDS011;24934;52.752;6.964;2023-08-30T01:20:17;29.25;;;24.58;;
39218;SDS011;24934;52.752;6.964;2023-08-30T01:28:38;27.27;;;23.88;;
39218;SDS011;24934;52.752;6.964;2023-08-30T01:31:05;26.92;;;22.73;;
39218;SDS011;24934;52.752;6.964;2023-08-30T01:33:34;26.45;;;23.75;;
39218;SDS011;24934;52.752;6.964;2023-08-30T01:36:03;26.48;;;23.42;;
39218;SDS011;24934;52.752;6.964;2023-08-30T01:38:31;29.52;;;23.92;;
39218;SDS011;24934;52.752;6.964;2023-08-30T01:40:58;26.25;;;23.42;;
39218;SDS011;24934;52.752;6.964;2023-08-30T01:43:25;28.17;;;24.80;;
39218;SDS011;24934;52.752;6.964;2023-08-30T01:45:53;27.30;;;24.50;;
39218;SDS011;24934;52.752;6.964;2023-08-30T01:48:21;27.05;;;24.15;;
39218;SDS011;24934;52.752;6.964;2023-08-30T01:50:48;26.42;;;23.20;;
39218;SDS011;24934;52.752;6.964;2023-08-30T01:53:14;26.88;;;23.90;;
39218;SDS011;24934;52.752;6.964;2023-08-30T01:55:40;27.42;;;24.63;;
39218;SDS011;24934;52.752;6.964;2023-08-30T01:58:08;28.58;;;25.00;;
39218;SDS011;24934;52.752;6.964;2023-08-30T02:00:35;29.17;;;26.08;;
39218;SDS011;24934;52.752;6.964;2023-08-30T02:03:13;32.10;;;25.85;;
39218;SDS011;24934;52.752;6.964;2023-08-30T02:05:43;30.80;;;27.40;;
39218;SDS011;24934;52.752;6.964;2023-08-30T02:08:17;31.17;;;27.80;;
39218;SDS011;24934;52.752;6.964;2023-08-30T02:10:48;31.88;;;26.70;;
39218;SDS011;24934;52.752;6.964;2023-08-30T02:13:18;29.60;;;26.33;;
39218;SDS011;24934;52.752;6.964;2023-08-30T02:15:50;32.22;;;26.48;;
39218;SDS011;24934;52.752;6.964;2023-08-30T02:18:18;32.42;;;25.65;;
39218;SDS011;24934;52.752;6.964;2023-08-30T02:20:45;29.25;;;26.15;;
39218;SDS011;24934;52.752;6.964;2023-08-30T02:23:11;35.30;;;28.70;;
39218;SDS011;24934;52.752;6.964;2023-08-30T02:25:37;33.20;;;28.88;;
39218;SDS011;24934;52.752;6.964;2023-08-30T02:28:02;34.63;;;29.35;;
39218;SDS011;24934;52.752;6.964;2023-08-30T02:30:28;32.50;;;27.80;;
39218;SDS011;24934;52.752;6.964;2023-08-30T02:32:54;33.58;;;27.23;;
39218;SDS011;24934;52.752;6.964;2023-08-30T02:35:20;34.58;;;28.60;;
39218;SDS011;24934;52.752;6.964;2023-08-30T02:37:46;35.75;;;30.00;;
39218;SDS011;24934;52.752;6.964;2023-08-30T02:40:11;32.55;;;28.60;;
39218;SDS011;24934;52.752;6.964;2023-08-30T02:42:37;32.72;;;28.95;;
39218;SDS011;24934;52.752;6.964;2023-08-30T02:45:03;39.58;;;30.45;;
39218;SDS011;24934;52.752;6.964;2023-08-30T02:47:28;36.70;;;31.23;;
39218;SDS011;24934;52.752;6.964;2023-08-30T02:49:54;39.03;;;30.88;;
39218;SDS011;24934;52.752;6.964;2023-08-30T02:52:20;35.67;;;31.73;;
39218;SDS011;24934;52.752;6.964;2023-08-30T02:54:47;39.92;;;31.92;;
39218;SDS011;24934;52.752;6.964;2023-08-30T02:57:12;40.33;;;32.15;;
39218;SDS011;24934;52.752;6.964;2023-08-30T02:59:38;43.42;;;33.53;;
39218;SDS011;24934;52.752;6.964;2023-08-30T03:02:04;40.47;;;33.97;;
39218;SDS011;24934;52.752;6.964;2023-08-30T03:04:30;40.60;;;31.60;;
39218;SDS011;24934;52.752;6.964;2023-08-30T03:06:56;40.67;;;32.55;;
39218;SDS011;24934;52.752;6.964;2023-08-30T03:09:21;41.40;;;33.05;;
39218;SDS011;24934;52.752;6.964;2023-08-30T03:11:47;37.58;;;32.20;;
39218;SDS011;24934;52.752;6.964;2023-08-30T03:14:13;44.63;;;35.03;;
39218;SDS011;24934;52.752;6.964;2023-08-30T03:16:41;45.28;;;34.85;;
39218;SDS011;24934;52.752;6.964;2023-08-30T03:19:09;39.55;;;34.20;;
39218;SDS011;24934;52.752;6.964;2023-08-30T03:21:38;42.25;;;34.95;;
39218;SDS011;24934;52.752;6.964;2023-08-30T03:24:03;41.92;;;33.05;;
39218;SDS011;24934;52.752;6.964;2023-08-30T03:26:29;43.97;;;34.00;;
39218;SDS011;24934;52.752;6.964;2023-08-30T03:28:55;41.72;;;33.15;;
39218;SDS011;24934;52.752;6.964;2023-08-30T03:31:21;37.05;;;32.35;;
39218;SDS011;24934;52.752;6.964;2023-08-30T03:33:47;40.05;;;32.40;;
39218;SDS011;24934;52.752;6.964;2023-08-30T03:36:17;46.50;;;32.70;;
39218;SDS011;24934;52.752;6.964;2023-08-30T03:38:44;39.03;;;32.63;;
39218;SDS011;24934;52.752;6.964;2023-08-30T03:41:11;40.45;;;32.15;;
39218;SDS011;24934;52.752;6.964;2023-08-30T03:43:38;36.45;;;31.23;;
39218;SDS011;24934;52.752;6.964;2023-08-30T03:46:06;38.03;;;31.85;;
39218;SDS011;24934;52.752;6.964;2023-08-30T03:48:32;37.10;;;31.23;;
39218;SDS011;24934;52.752;6.964;2023-08-30T03:50:58;40.22;;;30.83;;
39218;SDS011;24934;52.752;6.964;2023-08-30T03:53:24;37.92;;;29.92;;
39218;SDS011;24934;52.752;6.964;2023-08-30T03:55:50;37.08;;;30.45;;
39218;SDS011;24934;52.752;6.964;2023-08-30T03:58:17;33.78;;;29.05;;
39218;SDS011;24934;52.752;6.964;2023-08-30T04:00:43;33.85;;;29.42;;
39218;SDS011;24934;52.752;6.964;2023-08-30T04:03:09;40.30;;;29.30;;
39218;SDS011;24934;52.752;6.964;2023-08-30T04:05:38;34.70;;;29.27;;
39218;SDS011;24934;52.752;6.964;2023-08-30T04:08:04;33.50;;;28.92;;
39218;SDS011;24934;52.752;6.964;2023-08-30T04:10:38;42.08;;;30.40;;
39218;SDS011;24934;52.752;6.964;2023-08-30T04:13:06;36.05;;;29.75;;
39218;SDS011;24934;52.752;6.964;2023-08-30T04:15:33;36.13;;;30.33;;
39218;SDS011;24934;52.752;6.964;2023-08-30T04:18:00;35.75;;;29.58;;
39218;SDS011;24934;52.752;6.964;2023-08-30T04:20:26;36.35;;;29.23;;
39218;SDS011;24934;52.752;6.964;2023-08-30T04:22:52;37.33;;;29.50;;
39218;SDS011;24934;52.752;6.964;2023-08-30T04:25:20;36.08;;;29.25;;
39218;SDS011;24934;52.752;6.964;2023-08-30T04:27:45;35.10;;;29.05;;
39218;SDS011;24934;52.752;6.964;2023-08-30T04:30:11;35.17;;;29.23;;
39218;SDS011;24934;52.752;6.964;2023-08-30T04:32:37;36.22;;;28.20;;
39218;SDS011;24934;52.752;6.964;2023-08-30T04:35:03;36.15;;;27.95;;
39218;SDS011;24934;52.752;6.964;2023-08-30T04:37:29;32.03;;;26.60;;
39218;SDS011;24934;52.752;6.964;2023-08-30T04:39:56;34.83;;;27.92;;
39218;SDS011;24934;52.752;6.964;2023-08-30T04:42:22;33.28;;;27.98;;
39218;SDS011;24934;52.752;6.964;2023-08-30T04:44:48;37.97;;;27.40;;
39218;SDS011;24934;52.752;6.964;2023-08-30T04:47:14;35.08;;;27.95;;
39218;SDS011;24934;52.752;6.964;2023-08-30T04:49:39;32.47;;;27.83;;
39218;SDS011;24934;52.752;6.964;2023-08-30T04:52:05;37.00;;;28.60;;
39218;SDS011;24934;52.752;6.964;2023-08-30T04:54:31;37.15;;;28.90;;
39218;SDS011;24934;52.752;6.964;2023-08-30T04:57:01;34.45;;;27.92;;
39218;SDS011;24934;52.752;6.964;2023-08-30T04:59:29;31.38;;;27.20;;
39218;SDS011;24934;52.752;6.964;2023-08-30T05:01:55;29.80;;;26.00;;
39218;SDS011;24934;52.752;6.964;2023-08-30T05:04:21;31.48;;;26.92;;
39218;SDS011;24934;52.752;6.964;2023-08-30T05:06:46;30.92;;;26.67;;
39218;SDS011;24934;52.752;6.964;2023-08-30T05:09:12;31.77;;;26.27;;
39218;SDS011;24934;52.752;6.964;2023-08-30T05:11:37;29.80;;;26.30;;
39218;SDS011;24934;52.752;6.964;2023-08-30T05:14:03;29.58;;;25.45;;
39218;SDS011;24934;52.752;6.964;2023-08-30T05:16:29;30.15;;;24.73;;
39218;SDS011;24934;52.752;6.964;2023-08-30T05:18:54;27.42;;;24.40;;
39218;SDS011;24934;52.752;6.964;2023-08-30T05:21:20;26.17;;;23.50;;
39218;SDS011;24934;52.752;6.964;2023-08-30T05:23:46;27.05;;;23.67;;
39218;SDS011;24934;52.752;6.964;2023-08-30T05:26:12;27.13;;;24.23;;
39218;SDS011;24934;52.752;6.964;2023-08-30T05:28:38;27.13;;;23.80;;
39218;SDS011;24934;52.752;6.964;2023-08-30T05:31:04;28.58;;;23.35;;
39218;SDS011;24934;52.752;6.964;2023-08-30T05:33:30;27.38;;;22.83;;
39218;SDS011;24934;52.752;6.964;2023-08-30T05:35:56;28.67;;;23.98;;
39218;SDS011;24934;52.752;6.964;2023-08-30T05:38:21;27.02;;;23.73;;
39218;SDS011;24934;52.752;6.964;2023-08-30T05:40:53;29.50;;;23.25;;
39218;SDS011;24934;52.752;6.964;2023-08-30T05:43:18;26.70;;;23.38;;
39218;SDS011;24934;52.752;6.964;2023-08-30T05:45:44;25.33;;;22.63;;
39218;SDS011;24934;52.752;6.964;2023-08-30T05:48:10;24.95;;;22.38;;
39218;SDS011;24934;52.752;6.964;2023-08-30T05:50:35;25.30;;;22.08;;
39218;SDS011;24934;52.752;6.964;2023-08-30T05:53:02;25.67;;;22.95;;
39218;SDS011;24934;52.752;6.964;2023-08-30T05:55:28;26.45;;;23.65;;
39218;SDS011;24934;52.752;6.964;2023-08-30T05:57:54;25.98;;;23.15;;
39218;SDS011;24934;52.752;6.964;2023-08-30T06:00:20;25.70;;;22.73;;
39218;SDS011;24934;52.752;6.964;2023-08-30T06:02:47;25.02;;;21.48;;
39218;SDS011;24934;52.752;6.964;2023-08-30T06:05:12;27.83;;;22.83;;
39218;SDS011;24934;52.752;6.964;2023-08-30T06:07:38;25.90;;;22.65;;
39218;SDS011;24934;52.752;6.964;2023-08-30T06:10:03;26.00;;;23.30;;
39218;SDS011;24934;52.752;6.964;2023-08-30T06:12:29;26.55;;;22.85;;
39218;SDS011;24934;52.752;6.964;2023-08-30T06:14:55;27.52;;;22.27;;
39218;SDS011;24934;52.752;6.964;2023-08-30T06:17:21;25.40;;;22.00;;
39218;SDS011;24934;52.752;6.964;2023-08-30T06:19:47;25.08;;;22.58;;
39218;SDS011;24934;52.752;6.964;2023-08-30T06:22:13;26.42;;;22.42;;
39218;SDS011;24934;52.752;6.964;2023-08-30T06:24:38;32.03;;;22.98;;
39218;SDS011;24934;52.752;6.964;2023-08-30T06:27:04;26.10;;;23.30;;
39218;SDS011;24934;52.752;6.964;2023-08-30T06:29:30;26.33;;;23.45;;
39218;SDS011;24934;52.752;6.964;2023-08-30T06:31:56;30.73;;;22.63;;
39218;SDS011;24934;52.752;6.964;2023-08-30T06:34:22;24.42;;;21.92;;
39218;SDS011;24934;52.752;6.964;2023-08-30T06:36:48;27.75;;;23.08;;
39218;SDS011;24934;52.752;6.964;2023-08-30T06:39:14;25.23;;;22.10;;
39218;SDS011;24934;52.752;6.964;2023-08-30T06:41:39;28.02;;;23.35;;
39218;SDS011;24934;52.752;6.964;2023-08-30T06:44:05;25.60;;;21.45;;
39218;SDS011;24934;52.752;6.964;2023-08-30T06:46:34;31.25;;;22.40;;
39218;SDS011;24934;52.752;6.964;2023-08-30T06:48:59;29.85;;;23.10;;
39218;SDS011;24934;52.752;6.964;2023-08-30T06:51:25;25.77;;;22.45;;
39218;SDS011;24934;52.752;6.964;2023-08-30T06:53:51;24.55;;;21.98;;
39218;SDS011;24934;52.752;6.964;2023-08-30T06:56:16;24.95;;;22.08;;
39218;SDS011;24934;52.752;6.964;2023-08-30T06:58:42;28.63;;;22.60;;
39218;SDS011;24934;52.752;6.964;2023-08-30T07:01:09;25.90;;;23.20;;
39218;SDS011;24934;52.752;6.964;2023-08-30T07:03:35;24.52;;;21.92;;
39218;SDS011;24934;52.752;6.964;2023-08-30T07:06:00;25.08;;;22.08;;
39218;SDS011;24934;52.752;6.964;2023-08-30T07:08:26;25.48;;;21.65;;
39218;SDS011;24934;52.752;6.964;2023-08-30T07:10:52;24.83;;;21.73;;
39218;SDS011;24934;52.752;6.964;2023-08-30T07:13:17;23.10;;;20.73;;
39218;SDS011;24934;52.752;6.964;2023-08-30T07:15:43;22.70;;;20.38;;
39218;SDS011;24934;52.752;6.964;2023-08-30T07:18:09;22.85;;;20.40;;
39218;SDS011;24934;52.752;6.964;2023-08-30T07:20:35;23.20;;;20.83;;
39218;SDS011;24934;52.752;6.964;2023-08-30T07:23:02;23.33;;;20.92;;
39218;SDS011;24934;52.752;6.964;2023-08-30T07:25:30;24.33;;;21.83;;
39218;SDS011;24934;52.752;6.964;2023-08-30T07:28:01;22.73;;;19.85;;
39218;SDS011;24934;52.752;6.964;2023-08-30T07:30:26;22.65;;;20.25;;
39218;SDS011;24934;52.752;6.964;2023-08-30T07:32:53;23.13;;;20.77;;
39218;SDS011;24934;52.752;6.964;2023-08-30T07:35:19;24.55;;;20.13;;
39218;SDS011;24934;52.752;6.964;2023-08-30T07:37:44;22.30;;;20.10;;
39218;SDS011;24934;52.752;6.964;2023-08-30T07:40:10;22.38;;;20.05;;
39218;SDS011;24934;52.752;6.964;2023-08-30T07:42:37;21.58;;;19.33;;
39218;SDS011;24934;52.752;6.964;2023-08-30T07:45:03;21.80;;;19.50;;
39218;SDS011;24934;52.752;6.964;2023-08-30T07:47:29;21.63;;;19.58;;
39218;SDS011;24934;52.752;6.964;2023-08-30T07:49:55;21.10;;;19.08;;
39218;SDS011;24934;52.752;6.964;2023-08-30T07:52:21;21.15;;;19.00;;
39218;SDS011;24934;52.752;6.964;2023-08-30T07:54:46;22.45;;;18.73;;
39218;SDS011;24934;52.752;6.964;2023-08-30T07:57:12;22.08;;;19.92;;
39218;SDS011;24934;52.752;6.964;2023-08-30T07:59:38;21.15;;;19.05;;
39218;SDS011;24934;52.752;6.964;2023-08-30T08:02:04;22.17;;;19.83;;
39218;SDS011;24934;52.752;6.964;2023-08-30T08:04:33;22.27;;;19.88;;
39218;SDS011;24934;52.752;6.964;2023-08-30T08:06:59;21.15;;;18.83;;
39218;SDS011;24934;52.752;6.964;2023-08-30T08:09:30;22.13;;;19.92;;
39218;SDS011;24934;52.752;6.964;2023-08-30T08:11:55;23.98;;;21.40;;
39218;SDS011;24934;52.752;6.964;2023-08-30T08:14:22;21.67;;;19.65;;
39218;SDS011;24934;52.752;6.964;2023-08-30T08:16:48;20.00;;;18.10;;
39218;SDS011;24934;52.752;6.964;2023-08-30T08:19:14;20.48;;;18.42;;
39218;SDS011;24934;52.752;6.964;2023-08-30T08:21:39;20.00;;;18.17;;
39218;SDS011;24934;52.752;6.964;2023-08-30T08:24:05;20.38;;;18.55;;
39218;SDS011;24934;52.752;6.964;2023-08-30T08:26:31;19.65;;;17.75;;
39218;SDS011;24934;52.752;6.964;2023-08-30T08:28:57;20.30;;;18.50;;
39218;SDS011;24934;52.752;6.964;2023-08-30T08:31:22;22.45;;;20.15;;
39218;SDS011;24934;52.752;6.964;2023-08-30T08:36:35;18.92;;;17.02;;
39218;SDS011;24934;52.752;6.964;2023-08-30T08:39:01;18.67;;;16.85;;
39218;SDS011;24934;52.752;6.964;2023-08-30T08:41:30;21.58;;;19.40;;
39218;SDS011;24934;52.752;6.964;2023-08-30T08:44:03;21.85;;;17.88;;
39218;SDS011;24934;52.752;6.964;2023-08-30T08:46:31;20.85;;;17.73;;
39218;SDS011;24934;52.752;6.964;2023-08-30T08:48:59;20.58;;;18.48;;
39218;SDS011;24934;52.752;6.964;2023-08-30T08:51:30;21.42;;;17.40;;
39218;SDS011;24934;52.752;6.964;2023-08-30T08:54:01;21.10;;;17.08;;
39218;SDS011;24934;52.752;6.964;2023-08-30T08:56:29;20.95;;;17.90;;
39218;SDS011;24934;52.752;6.964;2023-08-30T08:58:56;20.48;;;17.23;;
39218;SDS011;24934;52.752;6.964;2023-08-30T09:01:22;20.13;;;18.20;;
39218;SDS011;24934;52.752;6.964;2023-08-30T09:03:48;19.27;;;17.38;;
39218;SDS011;24934;52.752;6.964;2023-08-30T09:06:15;21.35;;;17.60;;
39218;SDS011;24934;52.752;6.964;2023-08-30T09:08:41;19.75;;;17.75;;
39218;SDS011;24934;52.752;6.964;2023-08-30T09:11:06;20.38;;;18.27;;
39218;SDS011;24934;52.752;6.964;2023-08-30T09:13:32;20.40;;;18.33;;
39218;SDS011;24934;52.752;6.964;2023-08-30T09:15:58;19.70;;;17.63;;
39218;SDS011;24934;52.752;6.964;2023-08-30T09:18:24;19.77;;;17.67;;
39218;SDS011;24934;52.752;6.964;2023-08-30T09:20:53;22.38;;;17.45;;
39218;SDS011;24934;52.752;6.964;2023-08-30T09:23:19;19.33;;;16.88;;
39218;SDS011;24934;52.752;6.964;2023-08-30T09:25:46;22.88;;;17.55;;
39218;SDS011;24934;52.752;6.964;2023-08-30T09:28:12;20.33;;;17.73;;
39218;SDS011;24934;52.752;6.964;2023-08-30T09:30:53;22.70;;;18.20;;
39218;SDS011;24934;52.752;6.964;2023-08-30T09:33:21;21.88;;;18.40;;
39218;SDS011;24934;52.752;6.964;2023-08-30T09:35:50;22.10;;;18.25;;
39218;SDS011;24934;52.752;6.964;2023-08-30T09:38:19;21.45;;;18.73;;
39218;SDS011;24934;52.752;6.964;2023-08-30T09:40:45;20.80;;;18.60;;
39218;SDS011;24934;52.752;6.964;2023-08-30T09:43:11;21.05;;;19.05;;
39218;SDS011;24934;52.752;6.964;2023-08-30T09:45:38;20.05;;;18.05;;
39218;SDS011;24934;52.752;6.964;2023-08-30T09:48:04;18.75;;;16.95;;
39218;SDS011;24934;52.752;6.964;2023-08-30T09:50:33;20.05;;;18.10;;
39218;SDS011;24934;52.752;6.964;2023-08-30T09:53:01;23.00;;;19.58;;
39218;SDS011;24934;52.752;6.964;2023-08-30T09:55:33;21.30;;;19.10;;
39218;SDS011;24934;52.752;6.964;2023-08-30T09:58:06;22.08;;;19.92;;
39218;SDS011;24934;52.752;6.964;2023-08-30T10:00:32;23.33;;;20.98;;
39218;SDS011;24934;52.752;6.964;2023-08-30T10:02:59;25.02;;;22.42;;
39218;SDS011;24934;52.752;6.964;2023-08-30T10:05:29;25.15;;;21.58;;
39218;SDS011;24934;52.752;6.964;2023-08-30T10:07:56;27.73;;;22.30;;
39218;SDS011;24934;52.752;6.964;2023-08-30T10:10:22;24.50;;;21.90;;
39218;SDS011;24934;52.752;6.964;2023-08-30T10:12:51;23.58;;;21.13;;
39218;SDS011;24934;52.752;6.964;2023-08-30T10:15:19;24.27;;;21.88;;
39218;SDS011;24934;52.752;6.964;2023-08-30T10:17:46;27.80;;;21.98;;
39218;SDS011;24934;52.752;6.964;2023-08-30T10:20:16;23.45;;;20.88;;
39218;SDS011;24934;52.752;6.964;2023-08-30T10:22:51;23.40;;;20.77;;
39218;SDS011;24934;52.752;6.964;2023-08-30T10:25:21;22.60;;;20.02;;
39218;SDS011;24934;52.752;6.964;2023-08-30T10:27:51;22.42;;;20.13;;
39218;SDS011;24934;52.752;6.964;2023-08-30T10:30:18;24.15;;;21.40;;
39218;SDS011;24934;52.752;6.964;2023-08-30T10:32:45;22.40;;;20.05;;
39218;SDS011;24934;52.752;6.964;2023-08-30T10:35:11;21.42;;;19.30;;
39218;SDS011;24934;52.752;6.964;2023-08-30T10:37:38;23.20;;;20.88;;
39218;SDS011;24934;52.752;6.964;2023-08-30T10:40:05;21.98;;;19.67;;
39218;SDS011;24934;52.752;6.964;2023-08-30T10:42:31;22.65;;;20.33;;
39218;SDS011;24934;52.752;6.964;2023-08-30T10:44:57;23.08;;;20.77;;
39218;SDS011;24934;52.752;6.964;2023-08-30T10:47:30;21.90;;;19.70;;
39218;SDS011;24934;52.752;6.964;2023-08-30T10:49:57;20.77;;;18.58;;
39218;SDS011;24934;52.752;6.964;2023-08-30T10:52:24;22.45;;;18.27;;
39218;SDS011;24934;52.752;6.964;2023-08-30T10:54:51;23.27;;;20.98;;
39218;SDS011;24934;52.752;6.964;2023-08-30T10:57:24;23.60;;;21.50;;
39218;SDS011;24934;52.752;6.964;2023-08-30T11:00:24;23.85;;;21.52;;
39218;SDS011;24934;52.752;6.964;2023-08-30T11:02:52;23.83;;;21.50;;
39218;SDS011;24934;52.752;6.964;2023-08-30T11:05:20;23.92;;;21.50;;
39218;SDS011;24934;52.752;6.964;2023-08-30T11:07:49;23.88;;;21.48;;
39218;SDS011;24934;52.752;6.964;2023-08-30T11:10:16;25.15;;;22.60;;
39218;SDS011;24934;52.752;6.964;2023-08-30T11:12:49;24.70;;;22.08;;
39218;SDS011;24934;52.752;6.964;2023-08-30T11:15:15;24.95;;;22.33;;
39218;SDS011;24934;52.752;6.964;2023-08-30T11:17:41;25.23;;;22.52;;
39218;SDS011;24934;52.752;6.964;2023-08-30T11:20:08;25.42;;;22.73;;
39218;SDS011;24934;52.752;6.964;2023-08-30T11:22:42;25.17;;;22.60;;
39218;SDS011;24934;52.752;6.964;2023-08-30T11:25:09;28.27;;;23.70;;
39218;SDS011;24934;52.752;6.964;2023-08-30T11:27:45;27.77;;;25.00;;
39218;SDS011;24934;52.752;6.964;2023-08-30T11:30:11;29.17;;;25.15;;
39218;SDS011;24934;52.752;6.964;2023-08-30T11:32:40;28.90;;;25.15;;
39218;SDS011;24934;52.752;6.964;2023-08-30T11:35:08;28.73;;;25.52;;
39218;SDS011;24934;52.752;6.964;2023-08-30T11:37:34;29.80;;;26.63;;
39218;SDS011;24934;52.752;6.964;2023-08-30T11:40:00;30.77;;;27.63;;
39218;SDS011;24934;52.752;6.964;2023-08-30T11:42:31;31.88;;;28.58;;
39218;SDS011;24934;52.752;6.964;2023-08-30T11:44:58;32.25;;;28.17;;
39218;SDS011;24934;52.752;6.964;2023-08-30T11:47:25;33.45;;;30.00;;
39218;SDS011;24934;52.752;6.964;2023-08-30T11:49:57;33.33;;;29.15;;
39218;SDS011;24934;52.752;6.964;2023-08-30T11:52:27;34.63;;;31.00;;
39218;SDS011;24934;52.752;6.964;2023-08-30T11:55:05;33.38;;;29.88;;
39218;SDS011;24934;52.752;6.964;2023-08-30T12:03:45;31.00;;;27.90;;
39218;SDS011;24934;52.752;6.964;2023-08-30T12:06:15;29.88;;;26.77;;
39218;SDS011;24934;52.752;6.964;2023-08-30T12:08:44;28.75;;;25.92;;
39218;SDS011;24934;52.752;6.964;2023-08-30T12:14:04;28.40;;;25.75;;
39218;SDS011;24934;52.752;6.964;2023-08-30T12:16:30;29.17;;;26.08;;
39218;SDS011;24934;52.752;6.964;2023-08-30T12:18:55;28.17;;;25.48;;
39218;SDS011;24934;52.752;6.964;2023-08-30T12:21:21;28.25;;;25.33;;
39218;SDS011;24934;52.752;6.964;2023-08-30T12:23:47;29.52;;;26.67;;
39218;SDS011;24934;52.752;6.964;2023-08-30T12:26:12;30.02;;;27.13;;
39218;SDS011;24934;52.752;6.964;2023-08-30T12:28:38;31.35;;;28.05;;
39218;SDS011;24934;52.752;6.964;2023-08-30T12:31:06;30.55;;;27.52;;
39218;SDS011;24934;52.752;6.964;2023-08-30T12:33:35;29.40;;;26.52;;
39218;SDS011;24934;52.752;6.964;2023-08-30T12:36:02;29.33;;;26.40;;
39218;SDS011;24934;52.752;6.964;2023-08-30T12:38:29;29.17;;;26.35;;
39218;SDS011;24934;52.752;6.964;2023-08-30T12:40:55;29.35;;;26.45;;
39218;SDS011;24934;52.752;6.964;2023-08-30T12:43:21;27.85;;;25.17;;
39218;SDS011;24934;52.752;6.964;2023-08-30T12:45:48;28.40;;;25.80;;
39218;SDS011;24934;52.752;6.964;2023-08-30T12:48:15;26.83;;;24.20;;
39218;SDS011;24934;52.752;6.964;2023-08-30T12:50:42;26.75;;;24.25;;
39218;SDS011;24934;52.752;6.964;2023-08-30T12:53:11;26.08;;;23.67;;
39218;SDS011;24934;52.752;6.964;2023-08-30T12:55:37;26.85;;;24.13;;
39218;SDS011;24934;52.752;6.964;2023-08-30T12:58:08;24.92;;;22.65;;
39218;SDS011;24934;52.752;6.964;2023-08-30T13:00:34;23.33;;;21.23;;
39218;SDS011;24934;52.752;6.964;2023-08-30T13:03:01;23.17;;;21.08;;
39218;SDS011;24934;52.752;6.964;2023-08-30T13:05:28;24.02;;;21.73;;
39218;SDS011;24934;52.752;6.964;2023-08-30T13:07:55;23.38;;;21.42;;
39218;SDS011;24934;52.752;6.964;2023-08-30T13:10:21;22.70;;;20.80;;
39218;SDS011;24934;52.752;6.964;2023-08-30T13:12:47;24.88;;;22.38;;
39218;SDS011;24934;52.752;6.964;2023-08-30T13:15:15;23.13;;;21.13;;
39218;SDS011;24934;52.752;6.964;2023-08-30T13:17:41;23.02;;;20.83;;
39218;SDS011;24934;52.752;6.964;2023-08-30T13:20:07;22.98;;;21.02;;
39218;SDS011;24934;52.752;6.964;2023-08-30T13:22:33;22.13;;;20.23;;
39218;SDS011;24934;52.752;6.964;2023-08-30T13:24:59;21.75;;;19.75;;
39218;SDS011;24934;52.752;6.964;2023-08-30T13:27:24;21.48;;;19.55;;
39218;SDS011;24934;52.752;6.964;2023-08-30T13:29:50;22.55;;;20.63;;
39218;SDS011;24934;52.752;6.964;2023-08-30T13:32:18;21.70;;;19.90;;
39218;SDS011;24934;52.752;6.964;2023-08-30T13:34:46;23.13;;;20.92;;
39218;SDS011;24934;52.752;6.964;2023-08-30T13:37:12;25.35;;;23.15;;
39218;SDS011;24934;52.752;6.964;2023-08-30T13:39:40;25.77;;;23.48;;
39218;SDS011;24934;52.752;6.964;2023-08-30T13:42:06;26.20;;;23.58;;
39218;SDS011;24934;52.752;6.964;2023-08-30T13:44:38;27.30;;;24.88;;
39218;SDS011;24934;52.752;6.964;2023-08-30T13:47:04;26.90;;;24.38;;
39218;SDS011;24934;52.752;6.964;2023-08-30T13:49:30;27.35;;;24.85;;
39218;SDS011;24934;52.752;6.964;2023-08-30T13:52:01;26.05;;;23.77;;
39218;SDS011;24934;52.752;6.964;2023-08-30T13:54:28;26.55;;;24.05;;
39218;SDS011;24934;52.752;6.964;2023-08-30T13:56:57;25.95;;;23.48;;
39218;SDS011;24934;52.752;6.964;2023-08-30T13:59:23;26.15;;;23.52;;
39218;SDS011;24934;52.752;6.964;2023-08-30T14:01:53;25.67;;;23.42;;
39218;SDS011;24934;52.752;6.964;2023-08-30T14:04:22;27.23;;;24.65;;
39218;SDS011;24934;52.752;6.964;2023-08-30T14:06:49;24.88;;;22.55;;
39218;SDS011;24934;52.752;6.964;2023-08-30T14:09:15;25.20;;;22.60;;
39218;SDS011;24934;52.752;6.964;2023-08-30T14:11:46;23.83;;;21.73;;
39218;SDS011;24934;52.752;6.964;2023-08-30T14:14:12;25.27;;;23.08;;
39218;SDS011;24934;52.752;6.964;2023-08-30T14:16:39;24.00;;;22.00;;
39218;SDS011;24934;52.752;6.964;2023-08-30T14:19:08;25.38;;;23.08;;
39218;SDS011;24934;52.752;6.964;2023-08-30T14:21:33;25.70;;;23.40;;
39218;SDS011;24934;52.752;6.964;2023-08-30T14:23:59;24.85;;;22.55;;
39218;SDS011;24934;52.752;6.964;2023-08-30T14:26:26;24.13;;;22.15;;
39218;SDS011;24934;52.752;6.964;2023-08-30T14:28:53;24.17;;;22.10;;
39218;SDS011;24934;52.752;6.964;2023-08-30T14:31:18;20.45;;;18.85;;
39218;SDS011;24934;52.752;6.964;2023-08-30T14:33:44;19.98;;;18.40;;
39218;SDS011;24934;52.752;6.964;2023-08-30T14:36:13;20.67;;;19.08;;
39218;SDS011;24934;52.752;6.964;2023-08-30T14:38:41;19.92;;;18.42;;